createdAt,value
2019-02-05T00:00:40.413Z,3.67
2019-02-05T00:03:11.570Z,3.52
2019-02-05T00:05:39.917Z,3.55
2019-02-05T00:08:08.301Z,3.54
2019-02-05T00:10:36.849Z,3.57
2019-02-05T00:13:06.051Z,3.55
2019-02-05T00:15:34.698Z,3.48
2019-02-05T00:18:03.080Z,3.46
2019-02-05T00:20:31.454Z,3.24
2019-02-05T00:22:59.844Z,3.22
2019-02-05T00:25:28.237Z,3.42
2019-02-05T00:27:56.615Z,3.30
2019-02-05T00:30:25.362Z,3.34
2019-02-05T00:32:53.819Z,3.39
2019-02-05T00:35:22.192Z,3.34
2019-02-05T00:37:50.570Z,3.26
2019-02-05T00:40:19.029Z,3.21
2019-02-05T00:42:47.407Z,3.35
2019-02-05T00:45:18.299Z,3.23
2019-02-05T00:47:46.685Z,3.17
2019-02-05T00:50:17.089Z,3.26
2019-02-05T00:52:45.745Z,3.11
2019-02-05T00:55:19.078Z,3.04
2019-02-05T00:57:47.731Z,3.17
2019-02-05T01:00:27.991Z,3.16
2019-02-05T01:02:56.444Z,3.13
2019-02-05T01:05:25.258Z,3.15
2019-02-05T01:07:53.806Z,3.16
2019-02-05T01:10:23.526Z,3.15
2019-02-05T01:12:52.927Z,3.27
2019-02-05T01:15:23.339Z,3.18
2019-02-05T01:17:51.895Z,3.18
2019-02-05T01:20:21.412Z,3.11
2019-02-05T01:22:50.068Z,3.00
2019-02-05T01:25:19.778Z,2.98
2019-02-05T01:27:48.580Z,3.19
2019-02-05T01:30:19.903Z,3.16
2019-02-05T01:32:48.282Z,3.09
2019-02-05T01:35:16.659Z,3.11
2019-02-05T01:37:45.044Z,3.15
2019-02-05T01:40:16.327Z,3.13
2019-02-05T01:42:45.086Z,3.06
2019-02-05T01:45:15.803Z,3.00
2019-02-05T01:47:44.371Z,3.03
2019-02-05T01:50:21.333Z,3.12
2019-02-05T01:52:49.718Z,3.21
2019-02-05T01:55:18.541Z,3.30
2019-02-05T01:57:47.190Z,3.22
2019-02-05T02:00:20.805Z,3.36
2019-02-05T02:02:49.264Z,3.41
2019-02-05T02:05:17.640Z,3.42
2019-02-05T02:07:46.255Z,3.54
2019-02-05T02:10:17.956Z,3.35
2019-02-05T02:12:46.666Z,3.24
2019-02-05T02:15:15.123Z,3.33
2019-02-05T02:17:43.590Z,3.34
2019-02-05T02:20:14.664Z,3.34
2019-02-05T02:22:43.109Z,3.33
2019-02-05T02:25:12.616Z,3.21
2019-02-05T02:27:41.135Z,3.38
2019-02-05T02:30:15.099Z,3.41
2019-02-05T02:32:43.471Z,3.42
2019-02-05T02:35:12.129Z,3.31
2019-02-05T02:37:40.504Z,3.35
2019-02-05T02:40:10.605Z,3.45
2019-02-05T02:42:38.990Z,3.45
2019-02-05T02:45:10.593Z,3.54
2019-02-05T02:47:38.963Z,3.59
2019-02-05T02:50:13.398Z,3.56
2019-02-05T02:52:41.782Z,3.53
2019-02-05T02:55:10.421Z,3.33
2019-02-05T02:57:38.861Z,3.23
2019-02-05T03:00:13.272Z,3.12
2019-02-05T03:02:42.019Z,3.29
2019-02-05T03:05:12.557Z,3.36
2019-02-05T03:07:40.930Z,3.37
2019-02-05T03:10:15.412Z,3.38
2019-02-05T03:12:43.795Z,3.19
2019-02-05T03:15:12.525Z,3.27
2019-02-05T03:17:40.900Z,3.36
2019-02-05T03:20:12.609Z,3.38
2019-02-05T03:22:41.097Z,3.29
2019-02-05T03:25:18.798Z,3.22
2019-02-05T03:27:47.482Z,3.27
2019-02-05T03:30:21.829Z,3.27
2019-02-05T03:32:50.442Z,3.18
2019-02-05T03:35:19.366Z,3.19
2019-02-05T03:37:47.821Z,3.21
2019-02-05T03:40:31.734Z,3.37
2019-02-05T03:43:00.287Z,3.22
2019-02-05T03:45:31.707Z,3.30
2019-02-05T03:48:02.625Z,3.43
2019-02-05T03:50:33.495Z,3.38
2019-02-05T03:53:20.223Z,3.43
2019-02-05T03:56:00.676Z,3.39
2019-02-05T03:58:32.107Z,3.46
2019-02-05T04:01:09.593Z,3.47
2019-02-05T04:03:46.752Z,3.44
2019-02-05T04:06:24.001Z,3.41
2019-02-05T04:09:01.407Z,3.38
2019-02-05T04:11:35.575Z,3.38
2019-02-05T04:14:09.804Z,3.53
2019-02-05T04:17:12.966Z,3.49
2019-02-05T04:20:07.316Z,3.74
2019-02-05T04:22:50.940Z,3.63
2019-02-05T04:25:42.792Z,3.31
2019-02-05T04:28:41.493Z,3.37
2019-02-05T04:31:18.619Z,3.36
2019-02-05T04:34:11.010Z,3.45
2019-02-05T04:36:48.475Z,3.60
2019-02-05T04:39:22.862Z,3.45
2019-02-05T04:42:06.302Z,3.58
2019-02-05T04:44:40.756Z,3.73
2019-02-05T04:47:14.969Z,3.83
2019-02-05T04:49:55.235Z,3.87
2019-02-05T04:52:49.253Z,3.84
2019-02-05T04:55:29.035Z,3.84
2019-02-05T04:58:17.288Z,3.80
2019-02-05T05:01:06.857Z,3.66
2019-02-05T05:03:47.287Z,3.78
2019-02-05T05:06:43.001Z,3.66
2019-02-05T05:09:14.420Z,3.54
2019-02-05T05:11:42.814Z,3.53
2019-02-05T05:14:11.192Z,3.62
2019-02-05T05:16:39.583Z,3.73
2019-02-05T05:19:08.131Z,3.80
2019-02-05T05:21:36.908Z,3.78
2019-02-05T05:24:05.484Z,3.88
2019-02-05T05:26:33.890Z,3.72
2019-02-05T05:29:02.344Z,3.65
2019-02-05T05:31:30.727Z,3.71
2019-02-05T05:33:59.171Z,3.75
2019-02-05T05:36:27.672Z,3.76
2019-02-05T05:38:56.318Z,3.68
2019-02-05T05:41:24.708Z,3.77
2019-02-05T05:43:53.134Z,3.67
2019-02-05T05:46:21.512Z,3.64
2019-02-05T05:48:49.890Z,3.67
2019-02-05T05:51:18.379Z,3.69
2019-02-05T05:53:46.772Z,3.82
2019-02-05T05:56:15.665Z,3.92
2019-02-05T05:58:44.040Z,3.79
2019-02-05T06:01:12.427Z,3.71
2019-02-05T06:03:40.978Z,3.87
2019-02-05T06:06:09.342Z,3.84
2019-02-05T06:08:37.793Z,3.87
2019-02-05T06:11:06.182Z,3.68
2019-02-05T06:13:34.733Z,3.82
2019-02-05T06:16:03.129Z,4.03
2019-02-05T06:18:31.499Z,3.89
2019-02-05T06:20:59.883Z,3.94
2019-02-05T06:23:28.269Z,3.89
2019-02-05T06:25:56.643Z,4.02
2019-02-05T06:28:34.232Z,3.94
2019-02-05T06:30:55.154Z,4.00
2019-02-05T06:33:23.687Z,4.08
2019-02-05T06:35:52.126Z,4.06
2019-02-05T06:38:20.459Z,4.10
2019-02-05T06:40:48.844Z,4.11
2019-02-05T06:43:17.228Z,3.94
2019-02-05T06:45:45.614Z,3.74
2019-02-05T06:48:14.478Z,3.82
2019-02-05T06:50:42.853Z,3.75
2019-02-05T06:53:11.235Z,3.98
2019-02-05T06:55:39.613Z,3.87
2019-02-05T06:58:08.000Z,3.84
2019-02-05T07:00:36.380Z,4.03
2019-02-05T07:03:05.208Z,3.81
2019-02-05T07:05:33.967Z,3.85
2019-02-05T07:08:02.348Z,3.75
2019-02-05T07:10:30.729Z,3.94
2019-02-05T07:12:59.117Z,4.12
2019-02-05T07:15:27.532Z,4.10
2019-02-05T07:17:55.917Z,4.00
2019-02-05T07:20:24.298Z,4.02
2019-02-05T07:22:55.611Z,3.93
2019-02-05T07:25:23.228Z,3.98
2019-02-05T07:27:51.611Z,3.83
2019-02-05T07:30:25.289Z,3.83
2019-02-05T07:32:53.773Z,3.84
2019-02-05T07:35:22.344Z,3.77
2019-02-05T07:37:50.733Z,3.90
2019-02-05T07:40:21.696Z,3.84
2019-02-05T07:42:50.328Z,3.88
2019-02-05T07:45:21.393Z,3.80
2019-02-05T07:47:49.785Z,3.92
2019-02-05T07:50:26.768Z,4.05
2019-02-05T07:52:55.631Z,4.02
2019-02-05T07:55:24.450Z,3.88
2019-02-05T07:57:52.838Z,4.01
2019-02-05T08:00:24.003Z,4.09
2019-02-05T08:02:52.385Z,4.17
2019-02-05T08:05:34.442Z,4.12
2019-02-05T08:08:03.671Z,3.90
2019-02-05T08:10:32.324Z,3.91
2019-02-05T08:13:00.778Z,4.04
2019-02-05T08:15:31.738Z,3.99
2019-02-05T08:18:00.395Z,4.24
2019-02-05T08:20:29.114Z,3.98
2019-02-05T08:22:57.589Z,4.07
2019-02-05T08:25:25.964Z,4.18
2019-02-05T08:27:54.789Z,3.99
2019-02-05T08:30:28.683Z,3.76
2019-02-05T08:32:57.056Z,3.89
2019-02-05T08:35:25.443Z,3.94
2019-02-05T08:37:53.814Z,3.96
2019-02-05T08:40:23.443Z,4.08
2019-02-05T08:42:51.830Z,4.28
2019-02-05T08:45:22.727Z,4.21
2019-02-05T08:47:51.380Z,4.25
2019-02-05T08:50:22.108Z,4.39
2019-02-05T08:52:50.654Z,4.34
2019-02-05T08:55:20.584Z,4.37
2019-02-05T08:57:50.405Z,4.43
2019-02-05T09:00:21.132Z,4.36
2019-02-05T09:02:49.884Z,4.46
2019-02-05T09:05:18.272Z,4.43
2019-02-05T09:07:46.648Z,4.37
2019-02-05T09:10:29.441Z,4.32
2019-02-05T09:12:57.819Z,4.46
2019-02-05T09:15:29.507Z,4.45
2019-02-05T09:17:57.389Z,4.36
2019-02-05T09:20:25.772Z,4.40
2019-02-05T09:22:55.687Z,4.44
2019-02-05T09:25:24.077Z,4.27
2019-02-05T09:27:52.464Z,4.36
2019-02-05T09:30:26.652Z,4.38
2019-02-05T09:32:57.644Z,4.25
2019-02-05T09:35:26.034Z,4.39
2019-02-05T09:37:57.572Z,4.37
2019-02-05T09:40:31.802Z,4.49
2019-02-05T09:43:00.279Z,4.42
2019-02-05T09:45:30.287Z,4.19
2019-02-05T09:47:59.499Z,4.22
2019-02-05T09:50:30.798Z,4.16
2019-02-05T09:52:58.348Z,4.40
2019-02-05T09:55:27.016Z,4.53
2019-02-05T09:57:55.353Z,4.44
2019-02-05T10:00:29.298Z,4.28
2019-02-05T10:02:58.122Z,4.23
2019-02-05T10:05:31.971Z,4.36
2019-02-05T10:08:00.356Z,4.32
2019-02-05T10:10:28.750Z,4.26
2019-02-05T10:12:57.295Z,4.34
2019-02-05T10:15:28.016Z,4.07
2019-02-05T10:17:56.490Z,4.17
2019-02-05T10:20:25.408Z,4.25
2019-02-05T10:22:55.591Z,4.34
2019-02-05T10:25:23.979Z,4.25
2019-02-05T10:27:52.524Z,4.23
2019-02-05T10:30:29.204Z,4.52
2019-02-05T10:32:57.578Z,4.36
2019-02-05T10:35:26.089Z,4.37
2019-02-05T10:37:54.601Z,4.40
2019-02-05T10:40:24.518Z,4.35
2019-02-05T10:42:53.443Z,4.39
2019-02-05T10:45:24.331Z,4.57
2019-02-05T10:47:52.720Z,4.44
2019-02-05T10:50:21.782Z,4.53
2019-02-05T10:52:50.349Z,4.67
2019-02-05T10:55:20.730Z,4.34
2019-02-05T10:57:52.036Z,4.31
2019-02-05T11:00:25.105Z,4.33
2019-02-05T11:02:53.737Z,4.56
2019-02-05T11:05:24.631Z,4.52
2019-02-05T11:07:53.279Z,4.46
2019-02-05T11:10:21.758Z,4.65
2019-02-05T11:12:50.388Z,4.52
2019-02-05T11:15:27.640Z,4.38
2019-02-05T11:17:56.029Z,4.54
2019-02-05T11:20:26.353Z,4.52
2019-02-05T11:22:54.740Z,4.54
2019-02-05T11:25:23.392Z,4.69
2019-02-05T11:27:51.992Z,4.61
2019-02-05T11:30:35.113Z,4.77
2019-02-05T11:33:03.977Z,4.87
2019-02-05T11:35:32.799Z,4.80
2019-02-05T11:38:01.352Z,4.95
2019-02-05T11:40:34.752Z,4.87
2019-02-05T11:43:03.146Z,5.02
2019-02-05T11:45:31.877Z,5.08
2019-02-05T11:48:02.398Z,4.97
2019-02-05T11:50:31.242Z,4.90
2019-02-05T11:52:59.627Z,4.64
2019-02-05T11:55:31.052Z,4.48
2019-02-05T11:57:59.442Z,4.59
2019-02-05T12:00:33.197Z,4.75
2019-02-05T12:03:01.695Z,4.80
2019-02-05T12:05:30.398Z,4.91
2019-02-05T12:07:59.058Z,4.83
2019-02-05T12:13:35.506Z,4.82
2019-02-05T12:16:24.716Z,4.92
2019-02-05T12:19:12.225Z,4.98
2019-02-05T12:21:40.602Z,4.93
2019-02-05T12:24:10.707Z,4.90
2019-02-05T12:26:39.094Z,4.94
2019-02-05T12:29:26.618Z,4.90
2019-02-05T12:31:55.007Z,4.85
2019-02-05T12:36:57.289Z,4.67
2019-02-05T12:39:44.932Z,4.91
2019-02-05T12:42:13.324Z,5.03
2019-02-05T12:45:00.883Z,5.08
2019-02-05T12:47:29.335Z,5.04
2019-02-05T12:49:57.728Z,5.40
2019-02-05T12:52:26.219Z,5.40
2019-02-05T12:55:16.318Z,5.39
2019-02-05T12:58:23.864Z,5.44
2019-02-05T13:01:01.385Z,5.32
2019-02-05T13:03:22.356Z,5.39
2019-02-05T13:06:30.694Z,5.50
2019-02-05T13:08:59.033Z,5.33
2019-02-05T13:11:29.128Z,5.50
2019-02-05T13:13:57.511Z,5.20
2019-02-05T13:16:38.651Z,5.39
2019-02-05T13:21:41.430Z,5.45
2019-02-05T13:24:49.754Z,5.50
2019-02-05T13:27:37.374Z,5.32
2019-02-05T13:30:45.674Z,5.42
2019-02-05T13:33:55.701Z,5.55
2019-02-05T13:39:51.671Z,5.40
2019-02-05T13:42:20.055Z,5.19
2019-02-05T13:47:41.465Z,5.25
2019-02-05T13:50:49.756Z,5.29
2019-02-05T13:53:37.388Z,5.40
2019-02-05T13:56:45.694Z,5.61
2019-02-05T13:59:14.181Z,5.62
2019-02-05T14:02:01.894Z,5.61
2019-02-05T14:04:30.377Z,5.70
2019-02-05T14:07:18.101Z,5.68
2019-02-05T14:10:05.602Z,5.69
2019-02-05T14:12:33.991Z,5.79
2019-02-05T14:15:02.380Z,5.61
2019-02-05T14:17:30.753Z,5.61
2019-02-05T14:20:18.496Z,5.49
2019-02-05T14:28:09.782Z,5.29
2019-02-05T14:31:18.113Z,5.32
2019-02-05T14:33:46.492Z,5.48
2019-02-05T14:36:54.785Z,5.49
2019-02-05T14:39:23.191Z,5.61
2019-02-05T14:41:51.584Z,5.73
2019-02-05T14:44:19.960Z,5.67
2019-02-05T14:46:50.060Z,5.82
2019-02-05T14:49:18.451Z,5.69
2019-02-05T14:52:06.076Z,5.79
2019-02-05T14:54:34.464Z,5.73
2019-02-05T15:00:52.542Z,5.88
2019-02-05T15:03:20.919Z,5.75
2019-02-05T15:05:49.302Z,5.77
2019-02-05T15:08:17.682Z,5.70
2019-02-05T15:11:05.315Z,5.73
2019-02-05T15:13:33.698Z,5.70
2019-02-05T15:16:21.331Z,5.51
2019-02-05T15:18:49.712Z,5.36
2019-02-05T15:21:19.818Z,5.50
2019-02-05T15:24:07.443Z,5.42
2019-02-05T15:26:35.834Z,5.37
2019-02-05T15:29:23.455Z,5.27
2019-02-05T15:31:54.694Z,5.04
2019-02-05T15:34:21.942Z,5.21
2019-02-05T15:36:50.325Z,5.23
2019-02-05T15:39:38.001Z,5.26
2019-02-05T15:42:25.522Z,5.11
2019-02-05T15:44:53.899Z,5.25
2019-02-05T15:47:41.410Z,4.92
2019-02-05T15:50:49.691Z,5.16
2019-02-05T15:56:45.424Z,5.12
2019-02-05T15:59:13.816Z,5.04
2019-02-05T16:01:42.435Z,5.12
2019-02-05T16:04:10.804Z,5.25
2019-02-05T16:06:58.396Z,5.19
2019-02-05T16:09:26.762Z,5.29
2019-02-05T16:11:55.148Z,5.38
2019-02-05T16:14:23.530Z,5.19
2019-02-05T16:17:11.159Z,5.34
2019-02-05T16:19:39.536Z,5.32
2019-02-05T16:22:28.887Z,5.08
2019-02-05T16:24:57.268Z,5.04
2019-02-05T16:27:25.662Z,5.12
2019-02-05T16:35:36.166Z,5.09
2019-02-05T16:38:44.458Z,5.04
2019-02-05T16:41:12.846Z,5.15
2019-02-05T16:44:00.337Z,5.41
2019-02-05T16:46:47.966Z,5.38
2019-02-05T16:49:16.348Z,5.33
2019-02-05T16:52:03.852Z,5.31
2019-02-05T16:57:19.688Z,5.33
2019-02-05T16:59:48.062Z,5.41
2019-02-05T17:02:35.703Z,5.50
2019-02-05T17:05:44.007Z,5.36
2019-02-05T17:08:31.672Z,5.31
2019-02-05T17:11:00.060Z,5.13
2019-02-05T17:14:08.339Z,5.18
2019-02-05T17:16:36.723Z,5.20
2019-02-05T17:19:05.171Z,5.30
2019-02-05T17:21:33.555Z,5.17
2019-02-05T17:24:21.179Z,5.27
2019-02-05T17:26:49.571Z,5.31
2019-02-05T17:29:37.198Z,5.13
2019-02-05T17:32:45.502Z,5.29
2019-02-05T17:35:53.804Z,5.09
2019-02-05T17:38:22.183Z,5.33
2019-02-05T17:41:09.687Z,5.21
2019-02-05T17:43:38.330Z,5.23
2019-02-05T17:46:08.448Z,5.30
2019-02-05T17:48:36.839Z,5.30
2019-02-05T17:51:24.342Z,5.25
2019-02-05T17:53:52.723Z,5.35
2019-02-05T17:56:40.360Z,5.33
2019-02-05T17:59:27.988Z,5.21
2019-02-05T18:02:15.721Z,5.26
2019-02-05T18:05:03.217Z,5.23
2019-02-05T18:07:51.006Z,5.25
2019-02-05T18:10:41.698Z,5.20
2019-02-05T18:13:08.834Z,5.07
2019-02-05T18:16:17.360Z,5.21
2019-02-05T18:18:45.749Z,5.14
2019-02-05T18:21:14.434Z,5.15
2019-02-05T18:23:42.832Z,5.14
2019-02-05T18:29:17.912Z,5.18
2019-02-05T18:31:46.299Z,5.16
2019-02-05T18:34:15.065Z,5.12
2019-02-05T18:36:44.849Z,5.20
2019-02-05T18:39:32.343Z,5.19
2019-02-05T18:42:00.736Z,5.17
2019-02-05T18:44:48.364Z,5.18
2019-02-05T18:47:16.764Z,5.17
2019-02-05T18:50:04.386Z,5.10
2019-02-05T18:52:51.888Z,5.02
2019-02-05T18:56:00.177Z,4.98
2019-02-05T19:03:58.213Z,5.02
2019-02-05T19:06:45.840Z,5.16
2019-02-05T19:09:54.135Z,5.23
2019-02-05T19:12:22.611Z,5.11
2019-02-05T19:14:51.250Z,5.11
2019-02-05T19:17:19.807Z,5.26
2019-02-05T19:20:07.368Z,5.06
2019-02-05T19:22:56.763Z,5.16
2019-02-05T19:26:05.056Z,5.26
2019-02-05T19:39:50.641Z,5.42
2019-02-05T19:42:19.163Z,5.33
2019-02-05T19:49:58.541Z,5.42
2019-02-05T19:52:48.080Z,5.31
2019-02-05T19:58:23.137Z,5.21
2019-02-05T20:01:12.554Z,5.16
2019-02-05T20:03:41.016Z,5.04
2019-02-05T20:09:16.041Z,4.89
2019-02-05T20:11:44.411Z,4.94
2019-02-05T20:14:31.917Z,4.80
2019-02-05T20:17:19.551Z,4.87
2019-02-05T20:19:47.939Z,4.81
2019-02-05T20:27:58.203Z,4.82
2019-02-05T20:31:06.509Z,4.80
2019-02-05T20:33:54.085Z,4.89
2019-02-05T20:36:41.627Z,4.90
2019-02-05T20:39:49.973Z,4.85
2019-02-05T20:45:45.666Z,5.09
2019-02-05T20:48:15.998Z,5.09
2019-02-05T20:50:44.385Z,5.20
2019-02-05T20:53:31.962Z,5.22
2019-02-05T20:58:47.786Z,5.12
2019-02-05T21:01:16.171Z,5.14
2019-02-05T21:06:18.790Z,4.97
2019-02-05T21:08:47.180Z,5.04
2019-02-05T21:11:34.895Z,5.03
2019-02-05T21:14:22.539Z,5.04
2019-02-05T21:16:50.984Z,5.10
2019-02-05T21:19:38.847Z,5.07
2019-02-05T21:22:09.038Z,5.04
2019-02-05T21:27:10.921Z,4.74
2019-02-05T21:29:58.532Z,4.72
2019-02-05T21:32:27.018Z,4.80
2019-02-05T21:35:14.515Z,4.94
2019-02-05T21:40:50.984Z,5.02
2019-02-05T21:43:38.852Z,4.80
2019-02-05T21:46:26.604Z,4.78
2019-02-05T21:48:54.987Z,4.91
2019-02-05T21:51:42.610Z,5.02
2019-02-05T21:54:12.716Z,4.96
2019-02-05T21:57:00.210Z,4.75
2019-02-05T21:59:28.642Z,4.67
2019-02-05T22:01:57.039Z,4.77
2019-02-05T22:04:27.326Z,4.85
2019-02-05T22:06:55.527Z,4.88
2019-02-05T22:09:43.154Z,5.00
2019-02-05T22:12:11.543Z,4.94
2019-02-05T22:14:59.045Z,5.06
2019-02-05T22:17:27.445Z,5.20
2019-02-05T22:19:55.830Z,5.31
2019-02-05T22:26:10.911Z,5.38
2019-02-05T22:28:39.285Z,5.45
2019-02-05T22:31:07.730Z,5.27
2019-02-05T22:36:23.560Z,5.31
2019-02-05T22:39:11.188Z,5.23
2019-02-05T22:41:39.635Z,5.21
2019-02-05T22:46:55.464Z,5.37
2019-02-05T22:49:23.840Z,5.33
2019-02-05T22:51:53.949Z,5.34
2019-02-05T22:54:41.444Z,5.26
2019-02-05T22:57:09.831Z,5.42
2019-02-05T23:02:27.387Z,5.46
2019-02-05T23:05:35.684Z,5.55
2019-02-05T23:08:43.971Z,5.30
2019-02-05T23:11:50.949Z,5.19
2019-02-05T23:14:38.445Z,5.25
2019-02-05T23:17:46.747Z,5.03
2019-02-05T23:20:55.050Z,5.11
2019-02-05T23:24:03.347Z,4.97
2019-02-05T23:26:50.976Z,4.93
2019-02-05T23:29:38.600Z,4.94
2019-02-05T23:35:02.776Z,5.09
2019-02-05T23:37:31.967Z,4.92
2019-02-05T23:40:02.064Z,5.06
2019-02-05T23:43:10.368Z,5.29
2019-02-05T23:48:45.304Z,5.31
2019-02-05T23:51:13.691Z,5.25
2019-02-05T23:53:42.070Z,5.27
2019-02-05T23:56:12.175Z,5.32
2019-02-05T23:58:59.799Z,5.28
